Terminal Aerodrome Forecast
Issued by NWS

Home | Current Version | Previous Version | Text Only | Print | Product List | Glossary On
Versions: 1 2 3 4 5 6 7 8 9 10 11 12 13 14 15 16 17 18 19 20 21 22
226
FTUS43 KOAX 241618 AAD
TAFSNY
TAF AMD
KSNY 241618Z 2416/2512 36020G31KT P6SM OVC015
     FM241900 36018G29KT P6SM SCT015 OVC024
     FM242000 01020G28KT P6SM BKN060
     FM250000 29007KT P6SM SKC=

USA.gov is the U.S. government's official web portal to all federal, state and local government web resources and services.